Time;durP1;ratioP1;P1;durP2;ratioP2;P2;SDS_P1;SDS_P2;PMS_P1;PMS_P2;Temp;Humidity;BMP_temperature;BMP_pressure;BME280_temperature;BME280_humidity;BME280_pressure;Samples;Min_cycle;Max_cycle;Signal;HPM_P1;HPM_P2
2023/12/10 00:00:10;;;;;;;0.30;0.20;;;3.00;99.90;;;;;;5069607;28;20176;-77
2023/12/10 00:02:36;;;;;;;0.30;0.20;;;3.00;99.90;;;;;;5068039;28;20552;-72
2023/12/10 00:05:01;;;;;;;0.30;0.20;;;3.10;99.90;;;;;;5069291;28;20209;-72
2023/12/10 00:07:27;;;;;;;0.30;0.30;;;3.10;99.90;;;;;;5069232;28;20454;-72
2023/12/10 00:09:53;;;;;;;0.30;0.20;;;3.00;99.90;;;;;;5068983;28;20549;-77
2023/12/10 00:12:19;;;;;;;0.30;0.20;;;3.00;99.90;;;;;;5069350;28;20181;-77
2023/12/10 00:14:49;;;;;;;0.30;0.20;;;3.00;99.90;;;;;;5069086;28;20264;-72
2023/12/10 00:17:15;;;;;;;0.30;0.20;;;3.00;99.90;;;;;;5068494;28;20221;-73
2023/12/10 00:19:41;;;;;;;0.30;0.20;;;3.10;99.90;;;;;;5067997;28;20522;-78
2023/12/10 00:22:06;;;;;;;0.30;0.20;;;3.10;99.90;;;;;;5067852;28;20185;-77
2023/12/10 00:24:32;;;;;;;0.30;0.20;;;3.10;99.90;;;;;;5069298;28;20699;-77
2023/12/10 00:26:57;;;;;;;0.30;0.20;;;3.10;99.90;;;;;;5068831;28;20173;-77
2023/12/10 00:29:23;;;;;;;0.30;0.20;;;3.10;99.90;;;;;;5068076;28;20194;-78
2023/12/10 00:31:49;;;;;;;0.30;0.20;;;3.10;99.90;;;;;;5067385;28;20178;-77
2023/12/10 00:34:15;;;;;;;0.30;0.30;;;3.10;99.90;;;;;;5068930;28;20220;-72
2023/12/10 00:36:41;;;;;;;0.30;0.20;;;3.10;99.90;;;;;;5067781;28;20204;-78
2023/12/10 00:39:06;;;;;;;0.30;0.20;;;3.10;99.90;;;;;;5068635;28;20211;-75
2023/12/10 00:41:32;;;;;;;0.30;0.20;;;3.10;99.90;;;;;;5071364;28;20417;-77
2023/12/10 00:43:58;;;;;;;0.30;0.20;;;3.10;99.90;;;;;;5072518;28;20211;-78
2023/12/10 00:46:24;;;;;;;0.30;0.20;;;3.20;99.90;;;;;;5071425;28;20711;-73
2023/12/10 00:48:50;;;;;;;0.30;0.20;;;3.20;99.90;;;;;;5071395;28;20211;-72
2023/12/10 00:51:22;;;;;;;0.30;0.20;;;3.20;99.90;;;;;;5071871;28;20419;-72
2023/12/10 00:53:49;;;;;;;0.30;0.20;;;3.20;99.90;;;;;;5071911;28;20205;-72
2023/12/10 00:56:15;;;;;;;0.30;0.20;;;3.20;99.90;;;;;;5072132;28;20183;-72
2023/12/10 00:58:41;;;;;;;0.30;0.20;;;3.20;99.90;;;;;;5072855;28;20216;-73
2023/12/10 01:01:07;;;;;;;0.30;0.20;;;3.20;99.90;;;;;;5071113;28;20402;-72
2023/12/10 01:03:34;;;;;;;0.30;0.20;;;3.20;99.90;;;;;;5072244;28;20469;-77
2023/12/10 01:06:00;;;;;;;0.30;0.20;;;3.20;99.90;;;;;;5071824;28;20246;-73
2023/12/10 01:08:26;;;;;;;0.30;0.20;;;3.20;99.90;;;;;;5072489;28;20647;-72
2023/12/10 01:10:52;;;;;;;0.30;0.20;;;3.20;99.90;;;;;;5072019;28;20244;-77
2023/12/10 01:13:17;;;;;;;0.30;0.20;;;3.20;99.90;;;;;;5072120;28;20268;-78
2023/12/10 01:15:43;;;;;;;0.30;0.20;;;3.10;99.90;;;;;;5071880;28;20157;-78
2023/12/10 01:18:09;;;;;;;0.37;0.23;;;3.10;99.90;;;;;;5071610;28;20209;-73
2023/12/10 01:20:37;;;;;;;0.30;0.20;;;3.10;99.90;;;;;;5071791;28;20508;-78
2023/12/10 01:23:04;;;;;;;0.30;0.20;;;3.20;99.90;;;;;;5070633;28;20662;-78
2023/12/10 01:25:30;;;;;;;0.30;0.20;;;3.20;99.90;;;;;;5070613;28;20185;-72
2023/12/10 01:27:56;;;;;;;0.30;0.20;;;3.20;99.90;;;;;;5070495;28;20670;-73
2023/12/10 01:30:23;;;;;;;0.30;0.20;;;3.20;99.90;;;;;;5071823;28;20252;-72
2023/12/10 01:32:53;;;;;;;0.30;0.20;;;3.20;99.90;;;;;;5071968;28;20435;-73
2023/12/10 01:35:19;;;;;;;0.30;0.20;;;3.20;99.90;;;;;;5071524;28;20177;-72
2023/12/10 01:37:45;;;;;;;0.30;0.20;;;3.20;99.90;;;;;;5071752;28;20537;-72
2023/12/10 01:40:12;;;;;;;0.30;0.20;;;3.20;99.90;;;;;;5087108;28;20264;-77
2023/12/10 01:42:38;;;;;;;0.30;0.20;;;3.10;99.90;;;;;;5071450;28;20369;-78
2023/12/10 01:45:05;;;;;;;0.30;0.20;;;3.10;99.90;;;;;;5069936;28;20204;-72
2023/12/10 01:47:38;;;;;;;0.30;0.20;;;3.10;99.90;;;;;;5071728;28;20405;-73
2023/12/10 01:50:06;;;;;;;0.30;0.20;;;3.10;99.90;;;;;;5071248;28;20158;-78
2023/12/10 01:52:34;;;;;;;0.30;0.20;;;3.20;99.90;;;;;;5070819;28;20173;-73
2023/12/10 01:55:03;;;;;;;0.30;0.20;;;3.10;99.90;;;;;;5069019;28;20226;-72
2023/12/10 01:57:32;;;;;;;0.30;0.20;;;3.10;99.90;;;;;;5071500;28;20317;-77
2023/12/10 01:59:58;;;;;;;0.30;0.20;;;3.10;99.90;;;;;;5069759;28;20542;-77
2023/12/10 02:02:25;;;;;;;0.30;0.20;;;3.10;99.90;;;;;;5071238;28;20185;-78
2023/12/10 02:04:54;;;;;;;0.30;0.20;;;3.20;99.90;;;;;;5070521;28;20551;-78
2023/12/10 02:07:21;;;;;;;0.30;0.20;;;3.20;99.90;;;;;;5071382;28;20526;-72
2023/12/10 02:09:47;;;;;;;0.30;0.20;;;3.20;99.90;;;;;;5069486;28;20192;-72
2023/12/10 02:12:13;;;;;;;0.30;0.30;;;3.20;99.90;;;;;;5069836;28;20536;-77
2023/12/10 02:14:39;;;;;;;0.30;0.25;;;3.20;99.90;;;;;;5069651;28;20193;-72
2023/12/10 02:17:05;;;;;;;0.30;0.20;;;3.20;99.90;;;;;;5070387;28;20224;-72
2023/12/10 02:19:32;;;;;;;0.30;0.20;;;3.20;99.90;;;;;;5069613;28;20659;-77
2023/12/10 02:21:58;;;;;;;0.30;0.20;;;3.20;99.90;;;;;;5070761;28;20169;-73
2023/12/10 02:24:35;;;;;;;0.30;0.20;;;3.20;99.90;;;;;;5069671;28;20208;-73
2023/12/10 02:27:02;;;;;;;0.30;0.20;;;3.20;99.90;;;;;;5071121;28;20307;-78
2023/12/10 02:29:27;;;;;;;0.30;0.20;;;3.10;99.90;;;;;;5071042;28;20203;-77
2023/12/10 02:31:54;;;;;;;0.30;0.20;;;3.00;99.90;;;;;;5068772;28;20638;-73
2023/12/10 02:34:21;;;;;;;0.30;0.20;;;2.90;99.90;;;;;;5069248;28;20197;-72
2023/12/10 02:36:46;;;;;;;0.30;0.20;;;3.00;99.90;;;;;;5070161;28;20268;-72
2023/12/10 02:39:12;;;;;;;0.30;0.20;;;3.00;99.90;;;;;;5070550;28;20223;-72
2023/12/10 02:41:38;;;;;;;0.30;0.20;;;2.90;99.90;;;;;;5085951;28;20203;-78
2023/12/10 02:44:04;;;;;;;0.30;0.20;;;2.80;99.90;;;;;;5070252;28;20216;-77
2023/12/10 02:46:29;;;;;;;0.30;0.20;;;2.80;99.90;;;;;;5070620;28;20353;-73
2023/12/10 02:48:55;;;;;;;0.30;0.20;;;2.70;99.90;;;;;;5070159;28;20420;-72
2023/12/10 02:51:21;;;;;;;0.30;0.20;;;2.70;99.90;;;;;;5070109;28;20174;-78
2023/12/10 02:53:46;;;;;;;0.30;0.20;;;2.70;99.90;;;;;;5070564;28;20204;-72
2023/12/10 02:56:12;;;;;;;0.30;0.20;;;2.60;99.90;;;;;;5069232;28;20228;-78
2023/12/10 02:58:38;;;;;;;0.30;0.30;;;2.50;99.90;;;;;;5069787;28;20255;-77
2023/12/10 03:01:04;;;;;;;0.30;0.20;;;2.50;99.90;;;;;;5069327;28;20899;-76
2023/12/10 03:03:30;;;;;;;0.30;0.20;;;2.50;99.90;;;;;;5070058;28;20540;-78
2023/12/10 03:05:57;;;;;;;0.30;0.20;;;2.50;99.90;;;;;;5068221;28;20276;-77
2023/12/10 03:08:22;;;;;;;0.30;0.20;;;2.60;99.90;;;;;;5085526;28;20200;-72
2023/12/10 03:10:48;;;;;;;0.30;0.20;;;2.50;99.90;;;;;;5069692;28;20540;-73
2023/12/10 03:13:13;;;;;;;0.30;0.20;;;2.50;99.90;;;;;;5085671;28;20232;-78
2023/12/10 03:15:39;;;;;;;0.30;0.20;;;2.50;99.90;;;;;;5069777;28;20200;-77
2023/12/10 03:18:05;;;;;;;0.30;0.20;;;2.40;99.90;;;;;;5068868;28;20294;-72
2023/12/10 03:20:31;;;;;;;0.30;0.20;;;2.30;99.90;;;;;;5068659;28;20166;-72
2023/12/10 03:22:57;;;;;;;0.30;0.20;;;2.30;99.90;;;;;;5068188;28;20696;-72
2023/12/10 03:25:23;;;;;;;0.30;0.20;;;2.40;99.90;;;;;;5069145;28;20804;-78
2023/12/10 03:27:49;;;;;;;0.30;0.20;;;2.40;99.90;;;;;;5085292;28;21124;-73
2023/12/10 03:30:14;;;;;;;0.30;0.20;;;2.30;99.90;;;;;;5069795;28;20441;-72
2023/12/10 03:32:40;;;;;;;0.30;0.20;;;2.30;99.90;;;;;;5068430;28;20426;-77
2023/12/10 03:35:06;;;;;;;0.30;0.20;;;2.30;99.90;;;;;;5068028;28;20173;-78
2023/12/10 03:37:32;;;;;;;0.30;0.20;;;2.30;99.90;;;;;;5069631;28;20525;-78
2023/12/10 03:39:57;;;;;;;0.30;0.20;;;2.30;99.90;;;;;;5069250;28;20268;-73
2023/12/10 03:42:23;;;;;;;0.30;0.20;;;2.20;99.90;;;;;;5068474;28;20177;-78
2023/12/10 03:44:49;;;;;;;0.30;0.20;;;2.20;99.90;;;;;;5069355;28;20263;-78
2023/12/10 03:47:15;;;;;;;0.30;0.20;;;2.20;99.90;;;;;;5069317;28;20422;-72
2023/12/10 03:49:40;;;;;;;0.30;0.20;;;2.20;99.90;;;;;;5069654;28;20419;-73
2023/12/10 03:52:06;;;;;;;0.30;0.20;;;2.20;99.90;;;;;;5068088;28;20185;-72
2023/12/10 03:54:32;;;;;;;0.40;0.37;;;2.20;99.90;;;;;;5069643;28;20669;-72
2023/12/10 03:56:57;;;;;;;0.30;0.20;;;2.20;99.90;;;;;;5068935;28;20885;-72
2023/12/10 03:59:23;;;;;;;0.30;0.20;;;2.10;99.90;;;;;;5069737;28;20519;-77
2023/12/10 04:01:49;;;;;;;0.30;0.20;;;2.10;99.90;;;;;;5068998;28;20218;-78
2023/12/10 04:04:14;;;;;;;0.30;0.20;;;2.10;99.90;;;;;;5067160;28;20760;-72
2023/12/10 04:06:41;;;;;;;0.30;0.20;;;2.10;99.90;;;;;;5067837;28;20261;-73
2023/12/10 04:09:08;;;;;;;0.30;0.20;;;2.20;99.90;;;;;;5069532;28;20807;-77
2023/12/10 04:11:34;;;;;;;0.30;0.20;;;2.20;99.90;;;;;;5069077;28;20519;-77
2023/12/10 04:13:59;;;;;;;0.30;0.20;;;2.20;99.90;;;;;;5070294;28;20709;-78
2023/12/10 04:16:27;;;;;;;0.30;0.20;;;2.20;99.90;;;;;;5073259;28;20228;-73
2023/12/10 04:18:53;;;;;;;0.30;0.20;;;2.20;99.90;;;;;;5071386;28;20377;-78
2023/12/10 04:21:20;;;;;;;0.30;0.20;;;2.20;99.90;;;;;;5071970;28;20195;-72
2023/12/10 04:23:46;;;;;;;0.30;0.20;;;2.20;99.90;;;;;;5073144;28;20676;-73
2023/12/10 04:26:12;;;;;;;0.30;0.20;;;2.20;99.90;;;;;;5071696;28;20238;-72
2023/12/10 04:28:41;;;;;;;0.30;0.20;;;2.20;99.90;;;;;;5071778;28;20420;-73
2023/12/10 04:31:08;;;;;;;0.30;0.30;;;2.20;99.90;;;;;;5073247;28;20398;-72
2023/12/10 04:33:34;;;;;;;0.30;0.20;;;2.20;99.90;;;;;;5072798;28;20204;-78
2023/12/10 04:36:00;;;;;;;0.30;0.20;;;2.30;99.90;;;;;;5088164;28;20177;-77
2023/12/10 04:38:26;;;;;;;0.30;0.20;;;2.30;99.90;;;;;;5071414;28;20544;-72
2023/12/10 04:40:52;;;;;;;0.30;0.20;;;2.30;99.90;;;;;;5072981;28;20216;-77
2023/12/10 04:43:18;;;;;;;0.30;0.20;;;2.20;99.90;;;;;;5072637;28;20237;-72
2023/12/10 04:45:44;;;;;;;0.30;0.20;;;2.20;99.90;;;;;;5072517;28;20208;-72
2023/12/10 04:48:12;;;;;;;0.30;0.20;;;2.20;99.90;;;;;;5072923;28;20626;-72
2023/12/10 04:50:38;;;;;;;0.30;0.20;;;2.20;99.90;;;;;;5071291;28;20189;-72
2023/12/10 04:53:04;;;;;;;0.30;0.20;;;2.20;99.90;;;;;;5072525;28;20622;-78
2023/12/10 04:55:29;;;;;;;0.30;0.20;;;2.20;99.90;;;;;;5072557;28;20846;-72
2023/12/10 04:57:55;;;;;;;0.30;0.20;;;2.30;99.90;;;;;;5072632;28;20198;-78
2023/12/10 05:00:21;;;;;;;0.30;0.30;;;2.30;99.90;;;;;;5072373;28;20247;-76
2023/12/10 05:02:47;;;;;;;0.30;0.30;;;2.40;99.90;;;;;;5072183;28;20629;-73
2023/12/10 05:05:14;;;;;;;0.30;0.20;;;2.30;99.90;;;;;;5071264;28;20507;-75
2023/12/10 05:07:40;;;;;;;0.30;0.20;;;2.40;99.90;;;;;;5072288;28;20253;-78
2023/12/10 05:10:06;;;;;;;0.30;0.20;;;2.40;99.90;;;;;;5087736;28;20280;-78
2023/12/10 05:12:32;;;;;;;0.30;0.20;;;2.40;99.90;;;;;;5070684;28;20184;-72
2023/12/10 05:14:57;;;;;;;0.30;0.20;;;2.40;99.90;;;;;;5072098;28;20166;-78
2023/12/10 05:17:23;;;;;;;0.30;0.20;;;2.50;99.90;;;;;;5072197;28;20265;-72
2023/12/10 05:19:49;;;;;;;0.30;0.20;;;2.50;99.90;;;;;;5071312;28;20685;-77
2023/12/10 05:22:15;;;;;;;0.30;0.20;;;2.50;99.90;;;;;;5087694;28;20227;-72
2023/12/10 05:24:41;;;;;;;0.30;0.20;;;2.50;99.90;;;;;;5071893;28;20262;-78
2023/12/10 05:27:07;;;;;;;0.30;0.20;;;2.50;99.90;;;;;;5071090;28;20266;-78
2023/12/10 05:29:33;;;;;;;0.30;0.20;;;2.50;99.90;;;;;;5072006;28;20435;-77
2023/12/10 05:31:59;;;;;;;0.30;0.20;;;2.60;99.90;;;;;;5071615;28;20527;-78
2023/12/10 05:34:25;;;;;;;0.30;0.20;;;2.60;99.90;;;;;;5072053;28;20803;-77
2023/12/10 05:36:51;;;;;;;0.30;0.20;;;2.60;99.90;;;;;;5071719;28;20244;-72
2023/12/10 05:39:17;;;;;;;0.30;0.20;;;2.70;99.90;;;;;;5071621;28;20220;-77
2023/12/10 05:41:42;;;;;;;0.30;0.20;;;2.60;99.90;;;;;;5086847;28;20180;-72
2023/12/10 05:44:08;;;;;;;0.30;0.20;;;2.60;99.90;;;;;;5087169;28;20646;-72
2023/12/10 05:46:34;;;;;;;0.30;0.20;;;2.60;99.90;;;;;;5070278;28;20623;-78
2023/12/10 05:49:01;;;;;;;0.30;0.20;;;2.60;99.90;;;;;;5070130;28;20247;-73
2023/12/10 05:51:27;;;;;;;0.30;0.20;;;2.70;99.90;;;;;;5071406;28;20805;-77
2023/12/10 05:53:53;;;;;;;0.30;0.30;;;2.70;99.90;;;;;;5070123;28;20213;-78
2023/12/10 05:56:19;;;;;;;0.30;0.20;;;2.60;99.90;;;;;;5086867;28;20488;-77
2023/12/10 05:58:45;;;;;;;0.30;0.20;;;2.60;99.90;;;;;;5071361;28;20276;-78
2023/12/10 06:01:11;;;;;;;0.30;0.20;;;2.60;99.90;;;;;;5070910;28;20381;-78
2023/12/10 06:03:36;;;;;;;0.30;0.20;;;2.60;99.90;;;;;;5070967;28;20219;-72
2023/12/10 06:06:02;;;;;;;6.23;5.97;;;2.60;99.90;;;;;;5070860;28;20593;-72
2023/12/10 06:08:28;;;;;;;2.97;2.88;;;2.60;99.90;;;;;;5068734;28;20216;-78
2023/12/10 06:10:54;;;;;;;0.30;0.20;;;2.60;99.90;;;;;;5070884;28;20180;-73
2023/12/10 06:13:20;;;;;;;0.30;0.20;;;2.60;99.90;;;;;;5071670;28;20198;-72
2023/12/10 06:15:46;;;;;;;0.30;0.20;;;2.70;99.90;;;;;;5070558;28;20430;-73
2023/12/10 06:18:12;;;;;;;0.30;0.20;;;2.70;99.90;;;;;;5071011;28;20259;-73
2023/12/10 06:20:38;;;;;;;0.30;0.20;;;2.70;99.90;;;;;;5070206;28;20193;-76
2023/12/10 06:23:04;;;;;;;0.30;0.20;;;2.80;99.90;;;;;;5070783;28;20495;-78
2023/12/10 06:25:29;;;;;;;0.30;0.20;;;2.80;99.90;;;;;;5070595;28;20205;-76
2023/12/10 06:27:56;;;;;;;0.30;0.20;;;2.80;99.90;;;;;;5069230;28;20296;-72
2023/12/10 06:30:23;;;;;;;0.30;0.20;;;2.80;99.90;;;;;;5070597;28;20196;-78
2023/12/10 06:32:49;;;;;;;0.30;0.20;;;2.80;99.90;;;;;;5069482;28;20192;-78
2023/12/10 06:35:14;;;;;;;0.30;0.20;;;2.80;99.90;;;;;;5069169;28;20642;-77
2023/12/10 06:37:41;;;;;;;0.30;0.20;;;2.80;99.90;;;;;;5070420;28;20188;-73
2023/12/10 06:40:07;;;;;;;0.30;0.20;;;2.90;99.90;;;;;;5069186;28;20622;-77
2023/12/10 06:42:34;;;;;;;0.30;0.20;;;2.90;99.90;;;;;;5068803;28;20452;-78
2023/12/10 06:45:00;;;;;;;0.30;0.20;;;2.90;99.90;;;;;;5070229;28;20236;-78
2023/12/10 06:47:26;;;;;;;0.30;0.20;;;2.90;99.90;;;;;;5069196;28;20188;-73
2023/12/10 06:49:52;;;;;;;0.30;0.30;;;2.90;99.90;;;;;;5070018;28;20613;-77
2023/12/10 06:52:18;;;;;;;0.30;0.20;;;2.80;99.90;;;;;;5085762;28;20780;-73
2023/12/10 06:54:44;;;;;;;0.30;0.20;;;2.80;99.90;;;;;;5070137;28;20401;-78
2023/12/10 06:57:10;;;;;;;0.30;0.20;;;2.90;99.90;;;;;;5068896;28;20396;-78
2023/12/10 06:59:36;;;;;;;0.30;0.20;;;2.90;99.90;;;;;;5069992;28;20536;-73
2023/12/10 07:02:02;;;;;;;0.30;0.20;;;2.90;99.90;;;;;;5070180;28;20258;-73
2023/12/10 07:04:28;;;;;;;0.30;0.20;;;2.90;99.90;;;;;;5070122;28;20457;-77
2023/12/10 07:06:54;;;;;;;0.30;0.20;;;2.80;99.90;;;;;;5069945;28;20162;-73
2023/12/10 07:09:19;;;;;;;0.30;0.20;;;2.80;99.90;;;;;;5085048;28;20266;-73
2023/12/10 07:11:45;;;;;;;0.30;0.20;;;2.90;99.90;;;;;;5069389;28;20233;-73
2023/12/10 07:14:11;;;;;;;0.30;0.23;;;2.90;99.90;;;;;;5068809;28;20287;-77
2023/12/10 07:16:36;;;;;;;0.30;0.20;;;2.90;99.90;;;;;;5069225;28;20233;-73
2023/12/10 07:19:02;;;;;;;0.30;0.20;;;2.90;99.90;;;;;;5069903;28;20197;-73
2023/12/10 07:21:27;;;;;;;0.30;0.20;;;2.90;99.90;;;;;;5068570;28;20157;-77
2023/12/10 07:23:53;;;;;;;0.30;0.30;;;2.90;99.90;;;;;;5069492;28;20216;-72
2023/12/10 07:26:23;;;;;;;0.30;0.30;;;3.00;99.90;;;;;;5070140;28;20238;-77
2023/12/10 07:28:49;;;;;;;0.30;0.20;;;3.00;99.90;;;;;;5066756;28;20204;-72
2023/12/10 07:31:15;;;;;;;0.30;0.20;;;3.00;99.90;;;;;;5067648;28;20165;-77
2023/12/10 07:33:41;;;;;;;0.30;0.20;;;3.00;99.90;;;;;;5068057;28;20231;-72
2023/12/10 07:36:08;;;;;;;0.30;0.20;;;3.00;99.90;;;;;;5066465;28;20218;-77
2023/12/10 07:38:34;;;;;;;0.30;0.30;;;2.90;99.90;;;;;;5066768;28;20450;-76
2023/12/10 07:41:00;;;;;;;0.30;0.20;;;2.80;99.90;;;;;;5082995;28;20173;-72
2023/12/10 07:43:25;;;;;;;0.30;0.20;;;2.80;99.90;;;;;;5067230;28;20201;-79
2023/12/10 07:45:51;;;;;;;0.30;0.20;;;2.80;99.90;;;;;;5069594;28;20646;-77
2023/12/10 07:48:19;;;;;;;0.30;0.30;;;2.80;99.90;;;;;;5068815;28;20593;-77
2023/12/10 07:50:44;;;;;;;0.30;0.20;;;2.80;99.90;;;;;;5065715;28;20395;-72
2023/12/10 07:53:10;;;;;;;0.30;0.30;;;2.80;99.90;;;;;;5066234;28;20746;-72
2023/12/10 07:55:36;;;;;;;0.30;0.20;;;2.80;99.90;;;;;;5067590;28;20172;-77
2023/12/10 07:58:02;;;;;;;0.30;0.20;;;2.80;99.90;;;;;;5067564;28;20212;-72
2023/12/10 08:00:28;;;;;;;0.30;0.20;;;2.80;99.90;;;;;;5066333;28;20184;-72
2023/12/10 08:02:53;;;;;;;0.30;0.20;;;2.80;99.90;;;;;;5068096;28;20675;-77
2023/12/10 08:05:19;;;;;;;0.30;0.20;;;2.90;99.90;;;;;;5068767;28;20201;-76
2023/12/10 08:07:45;;;;;;;0.30;0.20;;;2.90;99.90;;;;;;5069290;28;20433;-72
2023/12/10 08:10:11;;;;;;;0.30;0.20;;;2.80;99.90;;;;;;5068787;28;20177;-75
2023/12/10 08:12:37;;;;;;;0.30;0.30;;;2.80;99.90;;;;;;5069416;28;20204;-72
2023/12/10 08:15:03;;;;;;;0.30;0.20;;;2.80;99.90;;;;;;5067944;28;20181;-72
2023/12/10 08:17:29;;;;;;;0.30;0.20;;;2.80;99.90;;;;;;5084911;28;20449;-72
2023/12/10 08:19:55;;;;;;;0.30;0.20;;;2.80;99.90;;;;;;5068991;28;20193;-77
2023/12/10 08:22:20;;;;;;;0.30;0.30;;;2.80;99.90;;;;;;5068898;28;20706;-72
2023/12/10 08:24:46;;;;;;;0.30;0.20;;;2.80;99.90;;;;;;5068745;28;20270;-77
2023/12/10 08:27:12;;;;;;;0.30;0.20;;;2.80;99.90;;;;;;5069092;28;20216;-72
2023/12/10 08:29:38;;;;;;;0.30;0.20;;;2.80;99.90;;;;;;5067765;28;20201;-78
2023/12/10 08:32:04;;;;;;;0.30;0.20;;;2.80;99.90;;;;;;5069152;28;20577;-72
2023/12/10 08:34:30;;;;;;;0.30;0.20;;;2.90;99.90;;;;;;5069221;28;20977;-72
2023/12/10 08:36:56;;;;;;;0.30;0.22;;;2.90;99.90;;;;;;5080050;28;20539;-72
2023/12/10 08:39:22;;;;;;;3.33;3.23;;;2.80;99.90;;;;;;5088735;28;20200;-76
2023/12/10 08:41:47;;;;;;;0.30;0.20;;;2.70;99.90;;;;;;5087371;28;20165;-72
2023/12/10 08:44:13;;;;;;;0.30;0.30;;;2.70;99.90;;;;;;5099930;28;20212;-78
2023/12/10 08:46:40;;;;;;;0.30;0.30;;;2.80;99.90;;;;;;5086780;28;20187;-74
2023/12/10 08:49:06;;;;;;;0.30;0.20;;;2.90;99.90;;;;;;5086045;28;20208;-74
2023/12/10 08:51:32;;;;;;;0.30;0.30;;;2.90;99.90;;;;;;5087037;28;20180;-79
2023/12/10 08:53:59;;;;;;;0.30;0.20;;;2.90;99.90;;;;;;5087797;28;20197;-78
2023/12/10 08:56:26;;;;;;;0.30;0.20;;;2.90;99.90;;;;;;5104375;28;20412;-78
2023/12/10 08:58:52;;;;;;;0.30;0.20;;;2.90;99.90;;;;;;5087861;28;20587;-72
2023/12/10 09:01:18;;;;;;;0.30;0.20;;;2.90;99.90;;;;;;5088789;28;20657;-78
2023/12/10 09:03:45;;;;;;;0.30;0.30;;;2.90;99.90;;;;;;5091337;28;20226;-72
2023/12/10 09:06:14;;;;;;;0.30;0.20;;;2.80;99.90;;;;;;5084666;28;20279;-78
2023/12/10 09:08:40;;;;;;;0.30;0.20;;;2.80;99.90;;;;;;5088445;28;20615;-78
2023/12/10 09:11:07;;;;;;;0.30;0.20;;;2.80;99.90;;;;;;5087858;28;20208;-78
2023/12/10 09:13:33;;;;;;;0.30;0.20;;;2.90;99.90;;;;;;5089454;28;20496;-73
2023/12/10 09:16:00;;;;;;;0.30;0.20;;;2.90;99.90;;;;;;5106422;28;20176;-73
2023/12/10 09:18:26;;;;;;;0.30;0.20;;;3.00;99.90;;;;;;5086401;28;20258;-78
2023/12/10 09:20:52;;;;;;;0.30;0.20;;;3.00;99.90;;;;;;5087176;28;20184;-78
2023/12/10 09:23:18;;;;;;;0.30;0.20;;;3.10;99.90;;;;;;5087460;28;20243;-73
2023/12/10 09:25:44;;;;;;;0.30;0.20;;;3.10;99.90;;;;;;5088469;28;20709;-73
2023/12/10 09:28:10;;;;;;;0.30;0.30;;;3.20;99.90;;;;;;5086738;28;20258;-79
2023/12/10 09:30:36;;;;;;;0.30;0.20;;;3.20;99.90;;;;;;5087782;28;20665;-73
2023/12/10 09:33:02;;;;;;;0.30;0.20;;;3.30;99.90;;;;;;5088358;28;20212;-73
2023/12/10 09:35:28;;;;;;;0.30;0.20;;;3.30;99.90;;;;;;5090734;28;20554;-73
2023/12/10 09:37:54;;;;;;;0.30;0.20;;;3.30;99.90;;;;;;5089367;28;20212;-73
2023/12/10 09:40:20;;;;;;;0.30;0.20;;;3.30;99.90;;;;;;5086856;28;20565;-74
2023/12/10 09:42:46;;;;;;;0.30;0.20;;;3.30;99.90;;;;;;5104435;28;20192;-73
2023/12/10 09:45:11;;;;;;;0.30;0.20;;;3.20;99.90;;;;;;5090137;28;20446;-73
2023/12/10 09:47:40;;;;;;;0.30;0.20;;;3.30;99.90;;;;;;5104028;28;20187;-79
2023/12/10 09:50:06;;;;;;;0.30;0.20;;;3.30;99.90;;;;;;5089902;28;20177;-73
2023/12/10 09:52:32;;;;;;;0.30;0.20;;;3.30;99.90;;;;;;5087489;28;20189;-72
2023/12/10 09:54:58;;;;;;;0.30;0.20;;;3.40;99.90;;;;;;5090035;28;20172;-73
2023/12/10 09:57:26;;;;;;;0.30;0.20;;;3.40;99.90;;;;;;5088646;28;20189;-73
2023/12/10 09:59:52;;;;;;;0.30;0.20;;;3.40;99.90;;;;;;5086511;28;20451;-78
2023/12/10 10:02:18;;;;;;;0.30;0.20;;;3.40;99.90;;;;;;5090090;28;20657;-73
2023/12/10 10:04:44;;;;;;;0.30;0.20;;;3.40;99.90;;;;;;5084741;28;20508;-79
2023/12/10 10:07:10;;;;;;;0.30;0.20;;;3.50;99.90;;;;;;5087028;28;20184;-73
2023/12/10 10:09:37;;;;;;;0.30;0.20;;;3.60;99.90;;;;;;5087298;28;20204;-79
2023/12/10 10:12:03;;;;;;;0.30;0.20;;;3.60;99.90;;;;;;5088054;28;20265;-79
2023/12/10 10:14:29;;;;;;;0.30;0.20;;;3.70;99.90;;;;;;5090721;28;20279;-78
2023/12/10 10:16:55;;;;;;;0.30;0.20;;;3.70;99.90;;;;;;5089919;28;20225;-73
2023/12/10 10:19:20;;;;;;;0.30;0.20;;;3.80;99.90;;;;;;5088978;28;20674;-79
2023/12/10 10:21:46;;;;;;;0.30;0.20;;;3.80;99.90;;;;;;5089922;28;20188;-74
2023/12/10 10:24:12;;;;;;;0.30;0.20;;;3.80;99.90;;;;;;5091103;28;20295;-73
2023/12/10 10:26:39;;;;;;;0.30;0.20;;;3.70;99.90;;;;;;5090145;28;20211;-74
2023/12/10 10:29:07;;;;;;;0.30;0.20;;;3.80;99.90;;;;;;5088990;28;20451;-73
2023/12/10 10:31:34;;;;;;;0.30;0.20;;;3.70;99.90;;;;;;5089310;28;20180;-73
2023/12/10 10:34:03;;;;;;;0.30;0.20;;;3.70;99.90;;;;;;5088885;28;20207;-73
2023/12/10 10:36:29;;;;;;;0.30;0.20;;;3.70;99.90;;;;;;5089477;28;20181;-74
2023/12/10 10:38:56;;;;;;;0.30;0.20;;;3.70;99.90;;;;;;5089720;28;20197;-79
2023/12/10 10:41:22;;;;;;;0.30;0.20;;;3.70;99.90;;;;;;5088963;28;20292;-78
2023/12/10 10:43:49;;;;;;;0.30;0.20;;;3.70;99.90;;;;;;5090528;28;20748;-72
2023/12/10 10:46:21;;;;;;;0.30;0.20;;;3.80;99.90;;;;;;5090365;28;20444;-73
2023/12/10 10:48:51;;;;;;;0.30;0.28;;;4.00;99.90;;;;;;5091058;28;20208;-78
2023/12/10 10:51:26;;;;;;;0.30;0.20;;;3.90;99.90;;;;;;5090166;28;20230;-78
2023/12/10 10:53:54;;;;;;;0.30;0.20;;;3.90;99.90;;;;;;5090861;28;20200;-77
2023/12/10 10:56:21;;;;;;;0.30;0.20;;;3.90;99.90;;;;;;5090292;28;20528;-73
2023/12/10 10:58:46;;;;;;;0.30;0.20;;;4.00;99.90;;;;;;5090789;28;20230;-74
2023/12/10 11:01:37;;;;;;;0.30;0.20;;;3.90;99.90;;;;;;5090258;28;20247;-78
2023/12/10 11:04:03;;;;;;;0.30;0.20;;;4.00;99.90;;;;;;5089114;28;20228;-78
2023/12/10 11:06:29;;;;;;;0.30;0.20;;;4.00;99.90;;;;;;5088947;28;20187;-73
2023/12/10 11:08:58;;;;;;;0.30;0.20;;;4.00;99.90;;;;;;5090425;28;20279;-78
2023/12/10 11:11:26;;;;;;;0.30;0.20;;;4.00;99.90;;;;;;5089328;28;20176;-73
2023/12/10 11:13:54;;;;;;;0.30;0.20;;;4.10;99.90;;;;;;5089352;28;20208;-73
2023/12/10 11:16:21;;;;;;;2.03;1.95;;;4.20;99.90;;;;;;5087961;28;20228;-73
2023/12/10 11:18:56;;;;;;;0.30;0.20;;;4.20;99.90;;;;;;5090401;28;20253;-78
2023/12/10 11:21:22;;;;;;;0.30;0.20;;;4.20;99.90;;;;;;5089747;28;20156;-72
2023/12/10 11:23:48;;;;;;;0.30;0.20;;;4.30;99.90;;;;;;5088116;28;20197;-78
2023/12/10 11:26:14;;;;;;;0.30;0.20;;;4.40;99.90;;;;;;5090009;28;20276;-74
2023/12/10 11:28:44;;;;;;;0.30;0.20;;;4.40;99.90;;;;;;5089998;28;20212;-73
2023/12/10 11:31:10;;;;;;;0.30;0.20;;;4.40;99.90;;;;;;5087885;28;20180;-78
2023/12/10 11:33:41;;;;;;;0.30;0.20;;;4.40;99.90;;;;;;5089970;28;20857;-73
2023/12/10 11:36:10;;;;;;;0.30;0.20;;;4.40;99.90;;;;;;5089746;28;20350;-72
2023/12/10 11:38:36;;;;;;;0.30;0.20;;;4.50;99.90;;;;;;5088893;28;20261;-73
2023/12/10 11:41:03;;;;;;;0.30;0.20;;;4.40;99.90;;;;;;5088225;28;20598;-78
2023/12/10 11:43:29;;;;;;;0.30;0.20;;;4.40;99.90;;;;;;5088611;28;20299;-78
2023/12/10 11:45:56;;;;;;;0.30;0.20;;;4.50;99.90;;;;;;5088242;28;20330;-73
2023/12/10 11:48:22;;;;;;;0.30;0.20;;;4.50;99.90;;;;;;5088500;28;20607;-73
2023/12/10 11:50:49;;;;;;;0.30;0.20;;;4.50;99.90;;;;;;5088121;28;20182;-73
2023/12/10 11:53:16;;;;;;;0.30;0.20;;;4.60;99.90;;;;;;5088230;28;20464;-72
2023/12/10 11:55:44;;;;;;;0.30;0.20;;;4.60;99.90;;;;;;5088000;28;20499;-78
2023/12/10 11:58:09;;;;;;;0.30;0.20;;;4.70;99.90;;;;;;5089793;28;20398;-78
2023/12/10 12:00:36;;;;;;;0.30;0.20;;;4.70;99.90;;;;;;5089594;28;20167;-78
2023/12/10 12:03:06;;;;;;;0.30;0.20;;;4.70;99.90;;;;;;5089623;28;20291;-78
2023/12/10 12:05:32;;;;;;;0.30;0.20;;;4.70;99.90;;;;;;5087616;28;20825;-73
2023/12/10 12:07:59;;;;;;;0.30;0.30;;;4.70;99.90;;;;;;5087656;28;20208;-77
2023/12/10 12:10:36;;;;;;;0.30;0.20;;;4.70;99.90;;;;;;5085746;28;20184;-77
2023/12/10 12:13:01;;;;;;;0.30;0.20;;;4.70;99.90;;;;;;5104843;28;20211;-76
2023/12/10 12:15:27;;;;;;;0.30;0.20;;;4.80;99.90;;;;;;5089057;28;20176;-76
2023/12/10 12:17:53;;;;;;;0.30;0.20;;;4.80;99.90;;;;;;5088444;28;20739;-76
2023/12/10 12:20:26;;;;;;;0.30;0.20;;;4.90;99.90;;;;;;5087196;28;20223;-77
2023/12/10 12:22:52;;;;;;;0.30;0.20;;;5.00;99.90;;;;;;5088747;28;20201;-77
2023/12/10 12:25:19;;;;;;;0.30;0.20;;;5.10;99.90;;;;;;5087659;28;20287;-77
2023/12/10 12:27:45;;;;;;;0.30;0.20;;;5.20;99.90;;;;;;5088151;28;20234;-77
2023/12/10 12:30:12;;;;;;;0.30;0.20;;;5.30;99.90;;;;;;5088930;28;20181;-77
2023/12/10 12:32:38;;;;;;;0.30;0.28;;;5.30;99.90;;;;;;5086641;28;20215;-77
2023/12/10 12:35:05;;;;;;;0.30;0.20;;;5.30;99.90;;;;;;5087720;28;20188;-76
2023/12/10 12:37:30;;;;;;;0.30;0.20;;;5.30;99.90;;;;;;5091011;28;20184;-77
2023/12/10 12:39:56;;;;;;;0.30;0.20;;;5.30;99.90;;;;;;5091493;28;20835;-77
2023/12/10 12:42:23;;;;;;;0.30;0.20;;;5.30;99.90;;;;;;5092297;28;20428;-77
2023/12/10 12:44:49;;;;;;;0.30;0.20;;;5.40;99.90;;;;;;5107535;28;20290;-76
2023/12/10 12:47:15;;;;;;;0.40;0.40;;;5.40;99.90;;;;;;5092733;28;20259;-75
2023/12/10 12:49:41;;;;;;;0.30;0.20;;;5.50;99.90;;;;;;5092718;28;20251;-76
2023/12/10 12:52:08;;;;;;;0.30;0.20;;;5.50;99.90;;;;;;5092270;28;20621;-75